sensor_id;sensor_type;location;lat;lon;timestamp;P1;durP1;ratioP1;P2;durP2;ratioP2
12663;SDS011;6396;58.490;15.528;2023-05-10T00:02:26;4.30;;;3.90;;
12663;SDS011;6396;58.490;15.528;2023-05-10T00:04:58;4.17;;;3.60;;
12663;SDS011;6396;58.490;15.528;2023-05-10T00:07:24;6.30;;;4.90;;
12663;SDS011;6396;58.490;15.528;2023-05-10T00:12:35;8.03;;;4.40;;
12663;SDS011;6396;58.490;15.528;2023-05-10T00:15:02;6.30;;;4.30;;
12663;SDS011;6396;58.490;15.528;2023-05-10T00:17:31;5.77;;;4.13;;
12663;SDS011;6396;58.490;15.528;2023-05-10T00:19:58;6.43;;;3.90;;
12663;SDS011;6396;58.490;15.528;2023-05-10T00:22:25;6.53;;;4.13;;
12663;SDS011;6396;58.490;15.528;2023-05-10T00:24:52;9.23;;;4.60;;
12663;SDS011;6396;58.490;15.528;2023-05-10T00:27:19;5.37;;;4.10;;
12663;SDS011;6396;58.490;15.528;2023-05-10T00:29:46;8.27;;;4.63;;
12663;SDS011;6396;58.490;15.528;2023-05-10T00:32:12;6.47;;;4.20;;
12663;SDS011;6396;58.490;15.528;2023-05-10T00:34:50;6.40;;;4.43;;
12663;SDS011;6396;58.490;15.528;2023-05-10T00:37:17;7.60;;;4.90;;
12663;SDS011;6396;58.490;15.528;2023-05-10T00:39:43;5.80;;;4.27;;
12663;SDS011;6396;58.490;15.528;2023-05-10T00:42:10;6.00;;;4.70;;
12663;SDS011;6396;58.490;15.528;2023-05-10T00:44:43;5.43;;;4.47;;
12663;SDS011;6396;58.490;15.528;2023-05-10T00:47:10;6.00;;;4.50;;
12663;SDS011;6396;58.490;15.528;2023-05-10T00:49:43;6.30;;;4.50;;
12663;SDS011;6396;58.490;15.528;2023-05-10T00:52:12;5.10;;;4.23;;
12663;SDS011;6396;58.490;15.528;2023-05-10T00:54:40;7.43;;;4.47;;
12663;SDS011;6396;58.490;15.528;2023-05-10T00:57:07;5.50;;;4.53;;
12663;SDS011;6396;58.490;15.528;2023-05-10T00:59:34;5.03;;;4.53;;
12663;SDS011;6396;58.490;15.528;2023-05-10T01:02:01;6.33;;;4.60;;
12663;SDS011;6396;58.490;15.528;2023-05-10T01:04:28;6.63;;;4.37;;
12663;SDS011;6396;58.490;15.528;2023-05-10T01:06:56;5.70;;;4.37;;
12663;SDS011;6396;58.490;15.528;2023-05-10T01:09:25;6.90;;;4.90;;
12663;SDS011;6396;58.490;15.528;2023-05-10T01:11:52;5.43;;;4.43;;
12663;SDS011;6396;58.490;15.528;2023-05-10T01:16:51;5.30;;;4.80;;
12663;SDS011;6396;58.490;15.528;2023-05-10T01:19:21;5.37;;;4.70;;
12663;SDS011;6396;58.490;15.528;2023-05-10T01:21:53;5.60;;;4.40;;
12663;SDS011;6396;58.490;15.528;2023-05-10T01:33:55;7.03;;;4.63;;
12663;SDS011;6396;58.490;15.528;2023-05-10T01:36:26;6.40;;;5.50;;
12663;SDS011;6396;58.490;15.528;2023-05-10T01:39:13;6.43;;;5.40;;
12663;SDS011;6396;58.490;15.528;2023-05-10T01:41:45;5.60;;;5.00;;
12663;SDS011;6396;58.490;15.528;2023-05-10T01:44:24;7.97;;;5.30;;
12663;SDS011;6396;58.490;15.528;2023-05-10T01:46:58;9.53;;;5.20;;
12663;SDS011;6396;58.490;15.528;2023-05-10T01:49:47;6.23;;;4.70;;
12663;SDS011;6396;58.490;15.528;2023-05-10T01:52:16;5.60;;;4.97;;
12663;SDS011;6396;58.490;15.528;2023-05-10T01:54:48;7.70;;;5.70;;
12663;SDS011;6396;58.490;15.528;2023-05-10T01:57:19;6.13;;;5.33;;
12663;SDS011;6396;58.490;15.528;2023-05-10T02:00:03;5.70;;;5.10;;
12663;SDS011;6396;58.490;15.528;2023-05-10T02:02:30;7.90;;;5.10;;
12663;SDS011;6396;58.490;15.528;2023-05-10T02:05:09;6.37;;;5.40;;
12663;SDS011;6396;58.490;15.528;2023-05-10T02:07:39;6.77;;;5.40;;
12663;SDS011;6396;58.490;15.528;2023-05-10T02:10:23;9.07;;;5.40;;
12663;SDS011;6396;58.490;15.528;2023-05-10T02:12:49;6.40;;;5.07;;
12663;SDS011;6396;58.490;15.528;2023-05-10T02:15:19;7.57;;;5.00;;
12663;SDS011;6396;58.490;15.528;2023-05-10T02:17:49;6.03;;;5.43;;
12663;SDS011;6396;58.490;15.528;2023-05-10T02:20:20;9.67;;;5.47;;
12663;SDS011;6396;58.490;15.528;2023-05-10T02:22:49;6.70;;;5.03;;
12663;SDS011;6396;58.490;15.528;2023-05-10T02:25:19;6.80;;;5.40;;
12663;SDS011;6396;58.490;15.528;2023-05-10T02:27:47;7.53;;;5.33;;
12663;SDS011;6396;58.490;15.528;2023-05-10T02:30:15;5.93;;;5.27;;
12663;SDS011;6396;58.490;15.528;2023-05-10T02:32:43;6.97;;;5.73;;
12663;SDS011;6396;58.490;15.528;2023-05-10T02:35:11;7.10;;;5.80;;
12663;SDS011;6396;58.490;15.528;2023-05-10T02:37:40;6.07;;;5.47;;
12663;SDS011;6396;58.490;15.528;2023-05-10T02:40:14;7.83;;;5.57;;
12663;SDS011;6396;58.490;15.528;2023-05-10T02:42:42;7.47;;;5.70;;
12663;SDS011;6396;58.490;15.528;2023-05-10T02:45:18;7.20;;;5.13;;
12663;SDS011;6396;58.490;15.528;2023-05-10T02:47:48;7.93;;;6.03;;
12663;SDS011;6396;58.490;15.528;2023-05-10T02:50:16;6.83;;;4.90;;
12663;SDS011;6396;58.490;15.528;2023-05-10T02:52:45;7.80;;;5.70;;
12663;SDS011;6396;58.490;15.528;2023-05-10T02:55:15;6.53;;;5.80;;
12663;SDS011;6396;58.490;15.528;2023-05-10T02:57:46;5.63;;;5.03;;
12663;SDS011;6396;58.490;15.528;2023-05-10T03:00:21;6.80;;;5.30;;
12663;SDS011;6396;58.490;15.528;2023-05-10T03:02:48;7.53;;;5.87;;
12663;SDS011;6396;58.490;15.528;2023-05-10T03:05:16;8.70;;;6.00;;
12663;SDS011;6396;58.490;15.528;2023-05-10T03:07:43;8.47;;;5.63;;
12663;SDS011;6396;58.490;15.528;2023-05-10T03:10:26;9.67;;;5.93;;
12663;SDS011;6396;58.490;15.528;2023-05-10T03:12:57;6.17;;;5.00;;
12663;SDS011;6396;58.490;15.528;2023-05-10T03:15:34;7.93;;;5.30;;
12663;SDS011;6396;58.490;15.528;2023-05-10T03:18:07;8.03;;;5.17;;
12663;SDS011;6396;58.490;15.528;2023-05-10T03:20:46;8.90;;;5.87;;
12663;SDS011;6396;58.490;15.528;2023-05-10T03:23:19;6.83;;;5.40;;
12663;SDS011;6396;58.490;15.528;2023-05-10T03:25:55;6.63;;;5.10;;
12663;SDS011;6396;58.490;15.528;2023-05-10T03:28:24;6.33;;;5.47;;
12663;SDS011;6396;58.490;15.528;2023-05-10T03:30:54;6.20;;;5.20;;
12663;SDS011;6396;58.490;15.528;2023-05-10T03:33:22;10.37;;;6.10;;
12663;SDS011;6396;58.490;15.528;2023-05-10T03:35:59;7.17;;;5.80;;
12663;SDS011;6396;58.490;15.528;2023-05-10T03:38:27;7.73;;;5.50;;
12663;SDS011;6396;58.490;15.528;2023-05-10T03:40:54;5.63;;;5.10;;
12663;SDS011;6396;58.490;15.528;2023-05-10T03:43:21;7.03;;;5.50;;
12663;SDS011;6396;58.490;15.528;2023-05-10T03:45:49;7.00;;;5.80;;
12663;SDS011;6396;58.490;15.528;2023-05-10T03:48:16;10.03;;;5.50;;
12663;SDS011;6396;58.490;15.528;2023-05-10T03:50:43;8.60;;;5.27;;
12663;SDS011;6396;58.490;15.528;2023-05-10T03:53:10;6.20;;;5.60;;
12663;SDS011;6396;58.490;15.528;2023-05-10T03:58:10;6.70;;;5.80;;
12663;SDS011;6396;58.490;15.528;2023-05-10T04:00:37;6.87;;;5.73;;
12663;SDS011;6396;58.490;15.528;2023-05-10T04:03:10;7.23;;;5.80;;
12663;SDS011;6396;58.490;15.528;2023-05-10T04:05:39;8.83;;;6.40;;
12663;SDS011;6396;58.490;15.528;2023-05-10T04:08:06;8.37;;;6.40;;
12663;SDS011;6396;58.490;15.528;2023-05-10T04:10:41;7.43;;;6.33;;
12663;SDS011;6396;58.490;15.528;2023-05-10T04:13:08;7.07;;;5.40;;
12663;SDS011;6396;58.490;15.528;2023-05-10T04:15:35;6.33;;;5.37;;
12663;SDS011;6396;58.490;15.528;2023-05-10T04:18:02;6.37;;;5.73;;
12663;SDS011;6396;58.490;15.528;2023-05-10T04:20:29;6.47;;;5.37;;
12663;SDS011;6396;58.490;15.528;2023-05-10T04:22:55;6.13;;;5.53;;
12663;SDS011;6396;58.490;15.528;2023-05-10T04:25:24;6.53;;;5.40;;
12663;SDS011;6396;58.490;15.528;2023-05-10T04:27:52;8.67;;;5.53;;
12663;SDS011;6396;58.490;15.528;2023-05-10T04:30:20;10.93;;;5.53;;
12663;SDS011;6396;58.490;15.528;2023-05-10T04:32:47;7.77;;;5.73;;
12663;SDS011;6396;58.490;15.528;2023-05-10T04:35:15;6.83;;;5.97;;
12663;SDS011;6396;58.490;15.528;2023-05-10T04:37:42;7.50;;;6.00;;
12663;SDS011;6396;58.490;15.528;2023-05-10T04:40:11;6.40;;;5.23;;
12663;SDS011;6396;58.490;15.528;2023-05-10T04:42:39;8.80;;;5.80;;
12663;SDS011;6396;58.490;15.528;2023-05-10T04:48:02;6.73;;;5.93;;
12663;SDS011;6396;58.490;15.528;2023-05-10T04:50:37;5.90;;;5.37;;
12663;SDS011;6396;58.490;15.528;2023-05-10T04:53:03;6.43;;;5.83;;
12663;SDS011;6396;58.490;15.528;2023-05-10T04:55:31;7.80;;;5.43;;
12663;SDS011;6396;58.490;15.528;2023-05-10T04:57:58;7.50;;;5.77;;
12663;SDS011;6396;58.490;15.528;2023-05-10T05:00:25;6.67;;;5.53;;
12663;SDS011;6396;58.490;15.528;2023-05-10T05:02:54;7.27;;;5.70;;
12663;SDS011;6396;58.490;15.528;2023-05-10T05:05:22;7.83;;;5.83;;
12663;SDS011;6396;58.490;15.528;2023-05-10T05:07:49;5.90;;;5.40;;
12663;SDS011;6396;58.490;15.528;2023-05-10T05:10:18;7.67;;;5.50;;
12663;SDS011;6396;58.490;15.528;2023-05-10T05:12:45;5.60;;;5.03;;
12663;SDS011;6396;58.490;15.528;2023-05-10T05:15:18;6.73;;;5.57;;
12663;SDS011;6396;58.490;15.528;2023-05-10T05:17:45;7.43;;;5.57;;
12663;SDS011;6396;58.490;15.528;2023-05-10T05:20:14;9.83;;;5.47;;
12663;SDS011;6396;58.490;15.528;2023-05-10T05:22:41;6.30;;;5.10;;
12663;SDS011;6396;58.490;15.528;2023-05-10T05:25:09;8.87;;;5.67;;
12663;SDS011;6396;58.490;15.528;2023-05-10T05:27:36;7.77;;;5.47;;
12663;SDS011;6396;58.490;15.528;2023-05-10T05:30:04;8.30;;;5.90;;
12663;SDS011;6396;58.490;15.528;2023-05-10T05:32:32;6.07;;;5.47;;
12663;SDS011;6396;58.490;15.528;2023-05-10T05:35:05;10.57;;;5.80;;
12663;SDS011;6396;58.490;15.528;2023-05-10T05:37:34;8.13;;;5.53;;
12663;SDS011;6396;58.490;15.528;2023-05-10T05:40:02;10.30;;;6.10;;
12663;SDS011;6396;58.490;15.528;2023-05-10T05:42:30;8.00;;;5.40;;
12663;SDS011;6396;58.490;15.528;2023-05-10T05:44:58;7.43;;;5.73;;
12663;SDS011;6396;58.490;15.528;2023-05-10T05:47:25;7.90;;;5.83;;
12663;SDS011;6396;58.490;15.528;2023-05-10T05:49:53;6.43;;;5.83;;
12663;SDS011;6396;58.490;15.528;2023-05-10T05:52:20;7.27;;;5.50;;
12663;SDS011;6396;58.490;15.528;2023-05-10T05:54:48;6.63;;;5.50;;
12663;SDS011;6396;58.490;15.528;2023-05-10T05:57:15;10.00;;;5.93;;
12663;SDS011;6396;58.490;15.528;2023-05-10T05:59:42;8.30;;;6.03;;
12663;SDS011;6396;58.490;15.528;2023-05-10T06:02:09;9.53;;;5.47;;
12663;SDS011;6396;58.490;15.528;2023-05-10T06:04:38;11.17;;;5.43;;
12663;SDS011;6396;58.490;15.528;2023-05-10T06:07:05;8.73;;;5.40;;
12663;SDS011;6396;58.490;15.528;2023-05-10T06:09:38;10.23;;;5.43;;
12663;SDS011;6396;58.490;15.528;2023-05-10T06:12:06;7.20;;;5.60;;
12663;SDS011;6396;58.490;15.528;2023-05-10T06:14:35;7.47;;;5.10;;
12663;SDS011;6396;58.490;15.528;2023-05-10T06:17:01;6.30;;;5.10;;
12663;SDS011;6396;58.490;15.528;2023-05-10T06:19:36;11.10;;;5.93;;
12663;SDS011;6396;58.490;15.528;2023-05-10T06:22:02;6.70;;;5.13;;
12663;SDS011;6396;58.490;15.528;2023-05-10T06:24:29;7.20;;;5.70;;
12663;SDS011;6396;58.490;15.528;2023-05-10T06:26:56;6.77;;;5.07;;
12663;SDS011;6396;58.490;15.528;2023-05-10T06:29:26;6.33;;;5.03;;
12663;SDS011;6396;58.490;15.528;2023-05-10T06:31:54;7.30;;;5.53;;
12663;SDS011;6396;58.490;15.528;2023-05-10T06:34:21;7.43;;;5.00;;
12663;SDS011;6396;58.490;15.528;2023-05-10T06:36:48;7.37;;;5.33;;
12663;SDS011;6396;58.490;15.528;2023-05-10T06:39:15;7.30;;;5.03;;
12663;SDS011;6396;58.490;15.528;2023-05-10T06:44:33;7.13;;;5.33;;
12663;SDS011;6396;58.490;15.528;2023-05-10T06:47:01;8.40;;;5.60;;
12663;SDS011;6396;58.490;15.528;2023-05-10T06:49:28;8.43;;;5.00;;
12663;SDS011;6396;58.490;15.528;2023-05-10T06:54:26;5.70;;;4.97;;
12663;SDS011;6396;58.490;15.528;2023-05-10T06:56:53;7.70;;;5.23;;
12663;SDS011;6396;58.490;15.528;2023-05-10T06:59:20;5.20;;;4.47;;
12663;SDS011;6396;58.490;15.528;2023-05-10T07:01:50;5.63;;;5.00;;
12663;SDS011;6396;58.490;15.528;2023-05-10T07:04:23;6.47;;;4.83;;
12663;SDS011;6396;58.490;15.528;2023-05-10T07:06:50;6.07;;;4.80;;
12663;SDS011;6396;58.490;15.528;2023-05-10T07:09:17;6.03;;;4.60;;
12663;SDS011;6396;58.490;15.528;2023-05-10T07:11:50;5.97;;;5.37;;
12663;SDS011;6396;58.490;15.528;2023-05-10T07:14:20;5.10;;;3.67;;
12663;SDS011;6396;58.490;15.528;2023-05-10T07:16:47;5.97;;;3.40;;
12663;SDS011;6396;58.490;15.528;2023-05-10T07:19:15;7.23;;;3.30;;
12663;SDS011;6396;58.490;15.528;2023-05-10T07:21:44;4.67;;;3.00;;
12663;SDS011;6396;58.490;15.528;2023-05-10T07:24:11;4.43;;;3.30;;
12663;SDS011;6396;58.490;15.528;2023-05-10T07:26:38;3.83;;;3.50;;
12663;SDS011;6396;58.490;15.528;2023-05-10T07:29:07;4.33;;;3.40;;
12663;SDS011;6396;58.490;15.528;2023-05-10T07:31:35;5.83;;;3.60;;
12663;SDS011;6396;58.490;15.528;2023-05-10T07:34:02;4.83;;;4.10;;
12663;SDS011;6396;58.490;15.528;2023-05-10T07:36:35;6.23;;;3.43;;
12663;SDS011;6396;58.490;15.528;2023-05-10T07:39:02;5.77;;;3.60;;
12663;SDS011;6396;58.490;15.528;2023-05-10T07:41:30;3.83;;;3.43;;
12663;SDS011;6396;58.490;15.528;2023-05-10T07:43:57;6.43;;;3.70;;
12663;SDS011;6396;58.490;15.528;2023-05-10T07:46:24;6.00;;;3.83;;
12663;SDS011;6396;58.490;15.528;2023-05-10T07:48:51;4.10;;;3.80;;
12663;SDS011;6396;58.490;15.528;2023-05-10T07:51:25;4.70;;;3.43;;
12663;SDS011;6396;58.490;15.528;2023-05-10T07:54:02;5.63;;;3.40;;
12663;SDS011;6396;58.490;15.528;2023-05-10T07:56:29;4.97;;;3.50;;
12663;SDS011;6396;58.490;15.528;2023-05-10T07:59:03;6.47;;;3.80;;
12663;SDS011;6396;58.490;15.528;2023-05-10T08:01:33;5.50;;;3.80;;
12663;SDS011;6396;58.490;15.528;2023-05-10T08:04:01;4.30;;;3.90;;
12663;SDS011;6396;58.490;15.528;2023-05-10T08:06:32;5.67;;;3.33;;
12663;SDS011;6396;58.490;15.528;2023-05-10T08:09:02;5.77;;;3.47;;
12663;SDS011;6396;58.490;15.528;2023-05-10T08:11:37;4.10;;;3.20;;
12663;SDS011;6396;58.490;15.528;2023-05-10T08:14:04;4.33;;;3.57;;
12663;SDS011;6396;58.490;15.528;2023-05-10T08:16:30;3.97;;;3.20;;
12663;SDS011;6396;58.490;15.528;2023-05-10T08:18:58;5.87;;;3.80;;
12663;SDS011;6396;58.490;15.528;2023-05-10T08:21:29;4.13;;;3.50;;
12663;SDS011;6396;58.490;15.528;2023-05-10T08:23:56;7.70;;;3.43;;
12663;SDS011;6396;58.490;15.528;2023-05-10T08:26:25;3.83;;;3.20;;
12663;SDS011;6396;58.490;15.528;2023-05-10T08:28:52;3.23;;;2.97;;
12663;SDS011;6396;58.490;15.528;2023-05-10T08:31:19;4.73;;;3.43;;
12663;SDS011;6396;58.490;15.528;2023-05-10T08:33:46;3.77;;;2.60;;
12663;SDS011;6396;58.490;15.528;2023-05-10T08:36:14;6.90;;;3.30;;
12663;SDS011;6396;58.490;15.528;2023-05-10T08:38:46;5.70;;;3.20;;
12663;SDS011;6396;58.490;15.528;2023-05-10T08:41:14;4.80;;;3.00;;
12663;SDS011;6396;58.490;15.528;2023-05-10T08:43:42;3.60;;;2.97;;
12663;SDS011;6396;58.490;15.528;2023-05-10T08:46:30;3.90;;;3.20;;
12663;SDS011;6396;58.490;15.528;2023-05-10T08:49:01;3.00;;;2.80;;
12663;SDS011;6396;58.490;15.528;2023-05-10T08:51:29;3.63;;;3.30;;
12663;SDS011;6396;58.490;15.528;2023-05-10T08:54:01;4.07;;;3.00;;
12663;SDS011;6396;58.490;15.528;2023-05-10T08:56:30;3.40;;;3.10;;
12663;SDS011;6396;58.490;15.528;2023-05-10T08:58:59;3.43;;;3.00;;
12663;SDS011;6396;58.490;15.528;2023-05-10T09:01:28;4.43;;;3.10;;
12663;SDS011;6396;58.490;15.528;2023-05-10T09:03:57;4.70;;;2.93;;
12663;SDS011;6396;58.490;15.528;2023-05-10T09:06:26;3.63;;;3.20;;
12663;SDS011;6396;58.490;15.528;2023-05-10T09:08:53;3.40;;;2.77;;
12663;SDS011;6396;58.490;15.528;2023-05-10T09:11:24;3.33;;;3.03;;
12663;SDS011;6396;58.490;15.528;2023-05-10T09:13:55;2.93;;;2.73;;
12663;SDS011;6396;58.490;15.528;2023-05-10T09:16:23;5.00;;;3.20;;
12663;SDS011;6396;58.490;15.528;2023-05-10T09:18:50;4.60;;;2.73;;
12663;SDS011;6396;58.490;15.528;2023-05-10T09:21:19;3.57;;;2.87;;
12663;SDS011;6396;58.490;15.528;2023-05-10T09:23:47;3.57;;;3.23;;
12663;SDS011;6396;58.490;15.528;2023-05-10T09:26:16;3.20;;;2.90;;
12663;SDS011;6396;58.490;15.528;2023-05-10T09:28:52;4.20;;;2.80;;
12663;SDS011;6396;58.490;15.528;2023-05-10T09:31:20;4.50;;;2.80;;
12663;SDS011;6396;58.490;15.528;2023-05-10T09:33:50;3.37;;;3.07;;
12663;SDS011;6396;58.490;15.528;2023-05-10T09:36:30;3.23;;;2.77;;
12663;SDS011;6396;58.490;15.528;2023-05-10T09:38:57;3.80;;;2.90;;
12663;SDS011;6396;58.490;15.528;2023-05-10T09:44:17;3.93;;;3.20;;
12663;SDS011;6396;58.490;15.528;2023-05-10T09:46:51;8.00;;;3.00;;
12663;SDS011;6396;58.490;15.528;2023-05-10T09:49:22;4.23;;;3.07;;
12663;SDS011;6396;58.490;15.528;2023-05-10T09:52:05;3.20;;;2.83;;
12663;SDS011;6396;58.490;15.528;2023-05-10T09:54:33;3.73;;;3.03;;
12663;SDS011;6396;58.490;15.528;2023-05-10T09:57:05;3.57;;;2.70;;
12663;SDS011;6396;58.490;15.528;2023-05-10T09:59:32;3.30;;;3.00;;
12663;SDS011;6396;58.490;15.528;2023-05-10T10:02:00;3.63;;;2.90;;
12663;SDS011;6396;58.490;15.528;2023-05-10T10:04:29;5.50;;;2.97;;
12663;SDS011;6396;58.490;15.528;2023-05-10T10:07:01;3.50;;;3.10;;
12663;SDS011;6396;58.490;15.528;2023-05-10T10:09:28;4.27;;;2.80;;
12663;SDS011;6396;58.490;15.528;2023-05-10T10:11:56;4.00;;;3.10;;
12663;SDS011;6396;58.490;15.528;2023-05-10T10:14:23;4.03;;;3.10;;
12663;SDS011;6396;58.490;15.528;2023-05-10T10:16:50;4.90;;;3.50;;
12663;SDS011;6396;58.490;15.528;2023-05-10T10:19:18;3.50;;;2.90;;
12663;SDS011;6396;58.490;15.528;2023-05-10T10:24:17;3.93;;;2.77;;
12663;SDS011;6396;58.490;15.528;2023-05-10T10:26:45;3.30;;;2.80;;
12663;SDS011;6396;58.490;15.528;2023-05-10T10:29:19;6.17;;;3.00;;
12663;SDS011;6396;58.490;15.528;2023-05-10T10:32:30;3.63;;;3.30;;
12663;SDS011;6396;58.490;15.528;2023-05-10T10:35:04;5.30;;;3.43;;
12663;SDS011;6396;58.490;15.528;2023-05-10T10:37:47;4.70;;;2.87;;
12663;SDS011;6396;58.490;15.528;2023-05-10T10:43:41;4.93;;;3.03;;
12663;SDS011;6396;58.490;15.528;2023-05-10T10:46:20;3.70;;;3.10;;
12663;SDS011;6396;58.490;15.528;2023-05-10T10:48:49;3.97;;;3.20;;
12663;SDS011;6396;58.490;15.528;2023-05-10T10:55:06;4.63;;;3.00;;
12663;SDS011;6396;58.490;15.528;2023-05-10T10:57:59;4.83;;;3.07;;
12663;SDS011;6396;58.490;15.528;2023-05-10T11:00:40;4.83;;;3.40;;
12663;SDS011;6396;58.490;15.528;2023-05-10T11:03:13;4.17;;;2.93;;
12663;SDS011;6396;58.490;15.528;2023-05-10T11:05:53;8.73;;;3.40;;
12663;SDS011;6396;58.490;15.528;2023-05-10T11:08:34;4.67;;;3.53;;
12663;SDS011;6396;58.490;15.528;2023-05-10T11:14:44;3.37;;;2.93;;
12663;SDS011;6396;58.490;15.528;2023-05-10T11:17:34;4.53;;;3.23;;
12663;SDS011;6396;58.490;15.528;2023-05-10T11:20:09;3.00;;;2.77;;
12663;SDS011;6396;58.490;15.528;2023-05-10T11:23:11;4.60;;;2.90;;
12663;SDS011;6396;58.490;15.528;2023-05-10T11:26:14;4.77;;;2.80;;
12663;SDS011;6396;58.490;15.528;2023-05-10T11:28:43;3.10;;;2.90;;
12663;SDS011;6396;58.490;15.528;2023-05-10T11:31:15;3.33;;;3.03;;
12663;SDS011;6396;58.490;15.528;2023-05-10T11:34:00;4.67;;;3.40;;
12663;SDS011;6396;58.490;15.528;2023-05-10T11:36:41;4.23;;;3.40;;
12663;SDS011;6396;58.490;15.528;2023-05-10T11:39:19;4.70;;;3.30;;
12663;SDS011;6396;58.490;15.528;2023-05-10T11:41:59;5.90;;;3.13;;
12663;SDS011;6396;58.490;15.528;2023-05-10T11:44:33;4.27;;;3.13;;
12663;SDS011;6396;58.490;15.528;2023-05-10T11:47:13;4.70;;;3.20;;
12663;SDS011;6396;58.490;15.528;2023-05-10T11:49:44;3.63;;;2.67;;
12663;SDS011;6396;58.490;15.528;2023-05-10T11:52:14;4.40;;;3.10;;
12663;SDS011;6396;58.490;15.528;2023-05-10T11:54:50;4.53;;;3.10;;
12663;SDS011;6396;58.490;15.528;2023-05-10T11:57:26;6.03;;;3.33;;
12663;SDS011;6396;58.490;15.528;2023-05-10T12:00:13;3.57;;;3.27;;
12663;SDS011;6396;58.490;15.528;2023-05-10T12:02:51;4.57;;;3.13;;
12663;SDS011;6396;58.490;15.528;2023-05-10T12:05:21;3.83;;;3.00;;
12663;SDS011;6396;58.490;15.528;2023-05-10T12:10:25;3.10;;;2.80;;
12663;SDS011;6396;58.490;15.528;2023-05-10T12:13:14;3.67;;;3.00;;
12663;SDS011;6396;58.490;15.528;2023-05-10T12:15:54;3.60;;;2.80;;
12663;SDS011;6396;58.490;15.528;2023-05-10T12:18:30;4.13;;;2.90;;
12663;SDS011;6396;58.490;15.528;2023-05-10T12:21:12;4.37;;;3.20;;
12663;SDS011;6396;58.490;15.528;2023-05-10T12:23:39;4.67;;;2.90;;
12663;SDS011;6396;58.490;15.528;2023-05-10T12:26:18;4.30;;;3.33;;
12663;SDS011;6396;58.490;15.528;2023-05-10T12:28:52;4.23;;;3.10;;
12663;SDS011;6396;58.490;15.528;2023-05-10T12:34:24;2.83;;;2.63;;
12663;SDS011;6396;58.490;15.528;2023-05-10T12:36:55;4.20;;;2.97;;
12663;SDS011;6396;58.490;15.528;2023-05-10T12:39:43;5.00;;;2.80;;
12663;SDS011;6396;58.490;15.528;2023-05-10T12:42:13;7.37;;;3.20;;
12663;SDS011;6396;58.490;15.528;2023-05-10T12:44:43;4.70;;;3.03;;
12663;SDS011;6396;58.490;15.528;2023-05-10T12:47:11;3.40;;;3.00;;
12663;SDS011;6396;58.490;15.528;2023-05-10T12:49:38;4.73;;;3.50;;
12663;SDS011;6396;58.490;15.528;2023-05-10T12:52:12;3.77;;;2.37;;
12663;SDS011;6396;58.490;15.528;2023-05-10T12:54:39;7.67;;;3.17;;
12663;SDS011;6396;58.490;15.528;2023-05-10T12:57:09;4.43;;;3.23;;
12663;SDS011;6396;58.490;15.528;2023-05-10T12:59:36;3.83;;;3.00;;
12663;SDS011;6396;58.490;15.528;2023-05-10T13:02:15;3.60;;;3.10;;
12663;SDS011;6396;58.490;15.528;2023-05-10T13:04:43;4.77;;;3.20;;
12663;SDS011;6396;58.490;15.528;2023-05-10T13:09:56;4.53;;;2.60;;
12663;SDS011;6396;58.490;15.528;2023-05-10T13:12:32;3.90;;;2.73;;
12663;SDS011;6396;58.490;15.528;2023-05-10T13:14:59;4.77;;;3.03;;
12663;SDS011;6396;58.490;15.528;2023-05-10T13:17:27;4.00;;;3.00;;
12663;SDS011;6396;58.490;15.528;2023-05-10T13:19:55;4.30;;;2.60;;
12663;SDS011;6396;58.490;15.528;2023-05-10T13:22:28;4.50;;;3.27;;
12663;SDS011;6396;58.490;15.528;2023-05-10T13:24:55;3.87;;;3.20;;
12663;SDS011;6396;58.490;15.528;2023-05-10T13:30:02;4.10;;;3.17;;
12663;SDS011;6396;58.490;15.528;2023-05-10T13:32:31;3.40;;;3.10;;
12663;SDS011;6396;58.490;15.528;2023-05-10T13:35:01;4.67;;;3.23;;
12663;SDS011;6396;58.490;15.528;2023-05-10T13:37:30;3.20;;;2.67;;
12663;SDS011;6396;58.490;15.528;2023-05-10T13:40:02;4.20;;;3.10;;
12663;SDS011;6396;58.490;15.528;2023-05-10T13:45:01;4.17;;;2.80;;
12663;SDS011;6396;58.490;15.528;2023-05-10T13:47:36;3.03;;;2.37;;
12663;SDS011;6396;58.490;15.528;2023-05-10T13:50:03;3.23;;;2.93;;
12663;SDS011;6396;58.490;15.528;2023-05-10T13:52:36;4.47;;;3.10;;
12663;SDS011;6396;58.490;15.528;2023-05-10T13:55:04;2.90;;;2.70;;
12663;SDS011;6396;58.490;15.528;2023-05-10T13:57:41;5.60;;;3.10;;
12663;SDS011;6396;58.490;15.528;2023-05-10T14:00:16;4.30;;;2.93;;
12663;SDS011;6396;58.490;15.528;2023-05-10T14:02:54;3.63;;;2.93;;
12663;SDS011;6396;58.490;15.528;2023-05-10T14:05:30;4.50;;;3.30;;
12663;SDS011;6396;58.490;15.528;2023-05-10T14:08:03;4.03;;;2.93;;
12663;SDS011;6396;58.490;15.528;2023-05-10T14:10:32;3.93;;;2.97;;
12663;SDS011;6396;58.490;15.528;2023-05-10T14:13:11;3.63;;;3.00;;
12663;SDS011;6396;58.490;15.528;2023-05-10T14:15:38;3.50;;;2.80;;
12663;SDS011;6396;58.490;15.528;2023-05-10T14:18:07;5.33;;;3.17;;
12663;SDS011;6396;58.490;15.528;2023-05-10T14:20:35;4.33;;;3.10;;
12663;SDS011;6396;58.490;15.528;2023-05-10T14:26:21;4.30;;;3.00;;
12663;SDS011;6396;58.490;15.528;2023-05-10T14:28:49;4.67;;;3.10;;
12663;SDS011;6396;58.490;15.528;2023-05-10T14:31:15;3.67;;;2.70;;
12663;SDS011;6396;58.490;15.528;2023-05-10T14:33:46;3.50;;;3.00;;
12663;SDS011;6396;58.490;15.528;2023-05-10T14:36:13;3.97;;;2.87;;
12663;SDS011;6396;58.490;15.528;2023-05-10T14:38:41;4.90;;;3.17;;
12663;SDS011;6396;58.490;15.528;2023-05-10T14:41:14;5.33;;;3.23;;
12663;SDS011;6396;58.490;15.528;2023-05-10T14:43:42;4.80;;;2.73;;
12663;SDS011;6396;58.490;15.528;2023-05-10T14:46:11;5.60;;;3.37;;
12663;SDS011;6396;58.490;15.528;2023-05-10T14:48:49;4.90;;;3.10;;
12663;SDS011;6396;58.490;15.528;2023-05-10T14:51:16;4.10;;;2.83;;
12663;SDS011;6396;58.490;15.528;2023-05-10T14:53:47;4.07;;;3.33;;
12663;SDS011;6396;58.490;15.528;2023-05-10T14:59:16;3.37;;;2.83;;
12663;SDS011;6396;58.490;15.528;2023-05-10T15:01:43;3.40;;;3.00;;
12663;SDS011;6396;58.490;15.528;2023-05-10T15:04:12;4.03;;;2.70;;
12663;SDS011;6396;58.490;15.528;2023-05-10T15:06:48;4.60;;;2.53;;
12663;SDS011;6396;58.490;15.528;2023-05-10T15:09:14;4.20;;;3.00;;
12663;SDS011;6396;58.490;15.528;2023-05-10T15:11:44;4.50;;;2.70;;
12663;SDS011;6396;58.490;15.528;2023-05-10T15:14:10;3.10;;;2.70;;
12663;SDS011;6396;58.490;15.528;2023-05-10T15:16:43;3.33;;;3.00;;
12663;SDS011;6396;58.490;15.528;2023-05-10T15:19:16;4.03;;;2.90;;
12663;SDS011;6396;58.490;15.528;2023-05-10T15:24:38;5.63;;;3.23;;
12663;SDS011;6396;58.490;15.528;2023-05-10T15:27:08;3.53;;;2.83;;
12663;SDS011;6396;58.490;15.528;2023-05-10T15:29:36;4.23;;;3.30;;
12663;SDS011;6396;58.490;15.528;2023-05-10T15:32:10;4.37;;;3.10;;
12663;SDS011;6396;58.490;15.528;2023-05-10T15:34:38;4.73;;;3.00;;
12663;SDS011;6396;58.490;15.528;2023-05-10T15:37:06;4.20;;;3.17;;
12663;SDS011;6396;58.490;15.528;2023-05-10T15:39:34;6.20;;;3.17;;
12663;SDS011;6396;58.490;15.528;2023-05-10T15:42:02;5.27;;;3.07;;
12663;SDS011;6396;58.490;15.528;2023-05-10T15:44:29;5.63;;;3.10;;
12663;SDS011;6396;58.490;15.528;2023-05-10T15:47:00;4.47;;;3.03;;
12663;SDS011;6396;58.490;15.528;2023-05-10T15:49:27;5.50;;;2.90;;
12663;SDS011;6396;58.490;15.528;2023-05-10T15:51:56;6.07;;;3.10;;
12663;SDS011;6396;58.490;15.528;2023-05-10T15:54:22;4.57;;;2.67;;
12663;SDS011;6396;58.490;15.528;2023-05-10T15:56:51;3.13;;;2.83;;
12663;SDS011;6396;58.490;15.528;2023-05-10T15:59:19;5.53;;;3.00;;
12663;SDS011;6396;58.490;15.528;2023-05-10T16:01:49;3.83;;;3.13;;
12663;SDS011;6396;58.490;15.528;2023-05-10T16:04:16;3.43;;;2.97;;
12663;SDS011;6396;58.490;15.528;2023-05-10T16:06:44;4.63;;;2.90;;
12663;SDS011;6396;58.490;15.528;2023-05-10T16:09:13;2.97;;;2.73;;
12663;SDS011;6396;58.490;15.528;2023-05-10T16:11:41;5.70;;;3.00;;
12663;SDS011;6396;58.490;15.528;2023-05-10T16:14:10;4.20;;;3.47;;